createdAt,value
2019-02-14T00:01:00.456Z,51.60
2019-02-14T00:03:27.693Z,51.58
2019-02-14T00:05:54.909Z,51.23
2019-02-14T00:08:22.117Z,51.39
2019-02-14T00:10:49.264Z,52.43
2019-02-14T00:13:16.534Z,51.03
2019-02-14T00:15:43.812Z,51.31
2019-02-14T00:18:11.087Z,51.05
2019-02-14T00:20:38.411Z,50.98
2019-02-14T00:23:05.688Z,50.95
2019-02-14T00:25:33.086Z,50.84
2019-02-14T00:28:00.371Z,50.62
2019-02-14T00:30:27.619Z,50.55
2019-02-14T00:32:54.914Z,50.64
2019-02-14T00:35:25.192Z,50.63
2019-02-14T00:37:51.261Z,50.65
2019-02-14T00:40:18.627Z,50.59
2019-02-14T00:42:45.929Z,50.69
2019-02-14T00:45:13.217Z,50.60
2019-02-14T00:47:40.389Z,50.52
2019-02-14T00:50:07.718Z,50.64
2019-02-14T00:52:34.911Z,50.50
2019-02-14T00:55:02.064Z,50.51
2019-02-14T00:57:29.261Z,50.47
2019-02-14T00:59:56.475Z,50.40
2019-02-14T01:02:23.687Z,50.47
2019-02-14T01:04:50.966Z,50.34
2019-02-14T01:07:18.136Z,50.39
2019-02-14T01:09:45.327Z,50.51
2019-02-14T01:12:12.707Z,50.42
2019-02-14T01:14:39.927Z,50.41
2019-02-14T01:17:07.124Z,50.50
2019-02-14T01:19:34.562Z,50.43
2019-02-14T01:22:01.783Z,50.84
2019-02-14T01:24:28.929Z,51.29
2019-02-14T01:26:56.212Z,51.45
2019-02-14T01:29:23.458Z,51.56
2019-02-14T01:31:50.650Z,51.40
2019-02-14T01:34:17.830Z,51.29
2019-02-14T01:36:45.127Z,51.34
2019-02-14T01:39:12.308Z,51.60
2019-02-14T01:41:39.475Z,51.56
2019-02-14T01:44:06.705Z,51.61
2019-02-14T01:46:33.910Z,51.69
2019-02-14T01:49:01.375Z,51.90
2019-02-14T01:51:28.522Z,51.82
2019-02-14T01:53:55.762Z,52.01
2019-02-14T01:56:22.894Z,51.90
2019-02-14T01:58:50.110Z,51.67
2019-02-14T02:01:17.322Z,51.81
2019-02-14T02:03:44.517Z,51.76
2019-02-14T02:06:11.809Z,51.55
2019-02-14T02:08:38.994Z,51.48
2019-02-14T02:11:06.182Z,51.53
2019-02-14T02:13:33.404Z,51.48
2019-02-14T02:16:00.566Z,51.37
2019-02-14T02:18:28.027Z,51.40
2019-02-14T02:20:55.216Z,51.29
2019-02-14T02:23:22.366Z,51.18
2019-02-14T02:25:49.571Z,51.37
2019-02-14T02:28:16.744Z,51.55
2019-02-14T02:30:43.983Z,51.29
2019-02-14T02:33:11.158Z,51.17
2019-02-14T02:35:38.345Z,51.38
2019-02-14T02:38:05.519Z,51.21
2019-02-14T02:40:32.723Z,51.02
2019-02-14T02:43:00.009Z,50.99
2019-02-14T02:45:27.158Z,51.04
2019-02-14T02:47:54.406Z,50.98
2019-02-14T02:50:21.618Z,51.02
2019-02-14T02:52:48.799Z,51.06
2019-02-14T02:55:16.231Z,51.13
2019-02-14T02:57:43.430Z,51.47
2019-02-14T03:00:13.064Z,51.37
2019-02-14T03:02:40.384Z,51.53
2019-02-14T03:05:08.993Z,51.49
2019-02-14T03:07:36.168Z,51.53
2019-02-14T03:10:03.931Z,51.56
2019-02-14T03:12:31.139Z,51.52
2019-02-14T03:14:58.351Z,51.65
2019-02-14T03:17:25.505Z,51.75
2019-02-14T03:19:52.719Z,51.70
2019-02-14T03:22:19.891Z,51.66
2019-02-14T03:24:47.077Z,51.80
2019-02-14T03:27:14.286Z,52.46
2019-02-14T03:29:41.466Z,52.65
2019-02-14T03:32:08.705Z,52.35
2019-02-14T03:34:35.860Z,52.47
2019-02-14T03:37:03.057Z,52.34
2019-02-14T03:39:30.233Z,52.33
2019-02-14T03:41:57.465Z,52.18
2019-02-14T03:44:24.647Z,52.38
2019-02-14T03:46:51.909Z,52.63
2019-02-14T03:49:19.137Z,52.23
2019-02-14T03:51:46.326Z,53.86
2019-02-14T03:54:13.541Z,52.98
2019-02-14T03:56:40.732Z,52.55
2019-02-14T03:59:07.941Z,52.65
2019-02-14T04:01:35.174Z,52.62
2019-02-14T04:04:02.343Z,52.38
2019-02-14T04:06:29.522Z,52.28
2019-02-14T04:08:56.890Z,52.08
2019-02-14T04:11:24.073Z,52.16
2019-02-14T04:13:51.256Z,52.17
2019-02-14T04:16:18.431Z,52.27
2019-02-14T04:18:45.641Z,52.19
2019-02-14T04:21:12.825Z,52.18
2019-02-14T04:23:40.033Z,52.01
2019-02-14T04:26:07.181Z,52.25
2019-02-14T04:28:34.355Z,52.03
2019-02-14T04:31:01.604Z,52.17
2019-02-14T04:33:28.812Z,52.28
2019-02-14T04:35:55.984Z,52.67
2019-02-14T04:38:23.202Z,52.43
2019-02-14T04:40:50.409Z,52.39
2019-02-14T04:43:17.640Z,52.30
2019-02-14T04:45:44.863Z,53.57
2019-02-14T04:48:12.042Z,53.02
2019-02-14T04:50:39.210Z,52.89
2019-02-14T04:53:06.439Z,52.83
2019-02-14T04:55:33.622Z,52.70
2019-02-14T04:58:00.814Z,52.48
2019-02-14T05:00:28.075Z,52.51
2019-02-14T05:02:55.236Z,52.58
2019-02-14T05:05:22.445Z,52.32
2019-02-14T05:07:49.621Z,52.19
2019-02-14T05:10:16.815Z,52.59
2019-02-14T05:12:44.044Z,52.44
2019-02-14T05:15:11.279Z,52.59
2019-02-14T05:17:38.478Z,52.37
2019-02-14T05:20:06.666Z,52.47
2019-02-14T05:22:33.879Z,52.48
2019-02-14T05:25:01.042Z,53.68
2019-02-14T05:27:28.351Z,53.20
2019-02-14T05:29:55.502Z,53.27
2019-02-14T05:32:22.639Z,52.98
2019-02-14T05:34:49.855Z,52.98
2019-02-14T05:37:17.030Z,53.69
2019-02-14T05:39:44.373Z,53.84
2019-02-14T05:42:11.823Z,53.11
2019-02-14T05:44:39.091Z,53.45
2019-02-14T05:47:06.391Z,53.11
2019-02-14T05:49:33.585Z,52.59
2019-02-14T05:52:00.761Z,52.30
2019-02-14T05:54:28.063Z,52.18
2019-02-14T05:56:55.210Z,52.10
2019-02-14T05:59:22.427Z,52.02
2019-02-14T06:01:49.729Z,51.97
2019-02-14T06:04:16.895Z,51.89
2019-02-14T06:06:44.086Z,51.85
2019-02-14T06:09:11.281Z,51.81
2019-02-14T06:11:38.463Z,51.67
2019-02-14T06:14:05.688Z,51.53
2019-02-14T06:16:32.860Z,51.46
2019-02-14T06:19:00.102Z,51.40
2019-02-14T06:21:27.269Z,51.88
2019-02-14T06:23:54.591Z,51.81
2019-02-14T06:26:21.848Z,51.80
2019-02-14T06:28:49.155Z,52.43
2019-02-14T06:31:16.485Z,52.38
2019-02-14T06:33:44.370Z,52.76
2019-02-14T06:36:11.711Z,52.42
2019-02-14T06:38:38.869Z,52.47
2019-02-14T06:41:06.053Z,53.22
2019-02-14T06:43:33.409Z,53.38
2019-02-14T06:46:00.596Z,52.98
2019-02-14T06:48:30.157Z,53.18
2019-02-14T06:51:00.452Z,53.07
2019-02-14T06:53:27.910Z,53.26
2019-02-14T06:55:55.152Z,52.83
2019-02-14T06:58:22.302Z,53.12
2019-02-14T07:00:49.476Z,52.71
2019-02-14T07:03:16.719Z,52.71
2019-02-14T07:05:43.891Z,52.62
2019-02-14T07:08:12.150Z,52.52
2019-02-14T07:10:39.561Z,53.23
2019-02-14T07:13:07.001Z,52.92
2019-02-14T07:15:34.285Z,53.06
2019-02-14T07:18:01.546Z,53.03
2019-02-14T07:20:28.776Z,53.07
2019-02-14T07:22:55.985Z,52.87
2019-02-14T07:25:23.181Z,52.60
2019-02-14T07:27:50.388Z,52.22
2019-02-14T07:30:18.616Z,52.21
2019-02-14T07:32:46.060Z,52.13
2019-02-14T07:35:13.571Z,52.11
2019-02-14T07:37:41.256Z,52.07
2019-02-14T07:40:10.319Z,52.04
2019-02-14T07:42:37.694Z,51.90
2019-02-14T07:45:06.558Z,51.91
2019-02-14T07:47:33.718Z,51.86
2019-02-14T07:50:00.956Z,51.80
2019-02-14T07:52:28.239Z,51.74
2019-02-14T07:54:55.502Z,51.67
2019-02-14T07:57:22.806Z,51.62
2019-02-14T07:59:50.015Z,51.60
2019-02-14T08:02:17.225Z,51.53
2019-02-14T08:04:44.449Z,51.48
2019-02-14T08:07:11.611Z,51.42
2019-02-14T08:09:38.783Z,51.40
2019-02-14T08:12:06.063Z,51.37
2019-02-14T08:14:33.226Z,51.28
2019-02-14T08:17:00.472Z,51.26
2019-02-14T08:19:27.799Z,51.12
2019-02-14T08:21:55.208Z,51.03
2019-02-14T08:24:22.400Z,51.02
2019-02-14T08:26:49.682Z,50.87
2019-02-14T08:29:16.981Z,50.80
2019-02-14T08:31:44.203Z,50.73
2019-02-14T08:34:11.521Z,50.62
2019-02-14T08:36:38.768Z,50.54
2019-02-14T08:39:05.967Z,50.48
2019-02-14T08:41:33.186Z,50.44
2019-02-14T08:44:00.546Z,50.33
2019-02-14T08:46:27.867Z,50.20
2019-02-14T08:48:55.100Z,50.17
2019-02-14T08:51:22.374Z,50.15
2019-02-14T08:53:49.603Z,50.10
2019-02-14T08:56:16.750Z,50.08
2019-02-14T08:58:43.958Z,50.04
2019-02-14T09:01:11.228Z,50.06
2019-02-14T09:03:38.396Z,50.03
2019-02-14T09:06:05.787Z,49.85
2019-02-14T09:08:32.959Z,49.82
2019-02-14T09:11:00.203Z,49.76
2019-02-14T09:13:27.471Z,49.73
2019-02-14T09:15:54.639Z,49.68
2019-02-14T09:18:21.864Z,49.60
2019-02-14T09:20:49.238Z,49.58
2019-02-14T09:23:16.451Z,49.49
2019-02-14T09:25:43.779Z,49.50
2019-02-14T09:28:11.051Z,49.47
2019-02-14T09:30:38.280Z,49.43
2019-02-14T09:33:05.504Z,49.30
2019-02-14T09:35:32.694Z,49.21
2019-02-14T09:38:03.226Z,49.13
2019-02-14T09:40:29.191Z,49.17
2019-02-14T09:42:56.503Z,49.17
2019-02-14T09:45:23.744Z,49.12
2019-02-14T09:47:51.131Z,48.95
2019-02-14T09:50:18.445Z,48.86
2019-02-14T09:52:45.716Z,48.84
2019-02-14T09:55:12.931Z,48.71
2019-02-14T09:57:40.144Z,48.69
2019-02-14T10:00:10.403Z,48.77
2019-02-14T10:02:37.611Z,48.79
2019-02-14T10:05:05.122Z,48.82
2019-02-14T10:07:32.421Z,48.72
2019-02-14T10:09:59.742Z,48.72
2019-02-14T10:12:26.958Z,48.69
2019-02-14T10:14:54.204Z,48.58
2019-02-14T10:17:22.446Z,48.47
2019-02-14T10:19:49.807Z,48.49
2019-02-14T10:22:16.997Z,48.50
2019-02-14T10:24:44.354Z,48.47
2019-02-14T10:27:11.575Z,48.31
2019-02-14T10:29:38.799Z,48.19
2019-02-14T10:32:06.078Z,48.07
2019-02-14T10:34:33.345Z,48.04
2019-02-14T10:37:00.628Z,47.95
2019-02-14T10:39:27.880Z,47.76
2019-02-14T10:41:55.200Z,47.69
2019-02-14T10:44:22.403Z,47.56
2019-02-14T10:46:49.747Z,47.54
2019-02-14T10:49:17.044Z,47.46
2019-02-14T10:51:44.289Z,47.36
2019-02-14T10:54:13.547Z,47.27
2019-02-14T10:56:41.583Z,47.30
2019-02-14T10:59:09.039Z,47.34
2019-02-14T11:01:37.359Z,47.36
2019-02-14T11:04:04.809Z,47.40
2019-02-14T11:06:33.641Z,47.32
2019-02-14T11:09:00.933Z,47.07
2019-02-14T11:11:28.334Z,47.07
2019-02-14T11:13:55.503Z,46.95
2019-02-14T11:16:22.672Z,46.85
2019-02-14T11:18:49.865Z,46.75
2019-02-14T11:21:17.083Z,46.78
2019-02-14T11:23:44.337Z,46.99
2019-02-14T11:26:11.696Z,47.41
2019-02-14T11:28:38.960Z,47.11
2019-02-14T11:31:06.111Z,47.01
2019-02-14T11:33:33.324Z,46.77
2019-02-14T11:36:00.703Z,46.76
2019-02-14T11:38:27.914Z,46.65
2019-02-14T11:40:55.105Z,46.64
2019-02-14T11:43:22.419Z,46.62
2019-02-14T11:45:49.708Z,46.67
2019-02-14T11:48:17.200Z,46.67
2019-02-14T11:50:44.357Z,47.12
2019-02-14T11:53:14.314Z,47.12
2019-02-14T11:55:40.685Z,47.15
2019-02-14T11:58:08.084Z,47.19
2019-02-14T12:00:35.272Z,47.41
2019-02-14T12:03:02.605Z,47.27
2019-02-14T12:05:29.811Z,47.25
2019-02-14T12:07:57.038Z,47.55
2019-02-14T12:10:24.391Z,47.33
2019-02-14T12:12:51.574Z,47.17
2019-02-14T12:15:18.830Z,47.12
2019-02-14T12:17:46.104Z,47.11
2019-02-14T12:20:13.395Z,47.06
2019-02-14T12:22:46.581Z,46.95
2019-02-14T12:25:10.582Z,47.06
2019-02-14T12:27:37.811Z,47.01
2019-02-14T12:30:07.037Z,46.85
2019-02-14T12:32:34.362Z,46.91
2019-02-14T12:35:01.652Z,46.80
2019-02-14T12:37:28.946Z,46.66
2019-02-14T12:39:56.224Z,46.58
2019-02-14T12:42:23.567Z,46.53
2019-02-14T12:44:50.825Z,46.41
2019-02-14T12:47:18.142Z,46.35
2019-02-14T12:49:45.359Z,46.33
2019-02-14T12:52:12.583Z,46.27
2019-02-14T12:54:39.762Z,46.10
2019-02-14T12:57:07.007Z,45.97
2019-02-14T12:59:34.326Z,45.92
2019-02-14T13:02:01.620Z,45.99
2019-02-14T13:04:28.827Z,45.98
2019-02-14T13:06:56.051Z,45.97
2019-02-14T13:09:23.290Z,45.87
2019-02-14T13:11:50.472Z,45.84
2019-02-14T13:14:17.632Z,45.88
2019-02-14T13:16:44.843Z,45.81
2019-02-14T13:19:12.026Z,45.88
2019-02-14T13:21:39.318Z,45.85
2019-02-14T13:24:06.519Z,45.89
2019-02-14T13:26:33.691Z,45.78
2019-02-14T13:29:01.053Z,45.80
2019-02-14T13:31:32.060Z,45.70
2019-02-14T13:33:57.373Z,45.63
2019-02-14T13:36:24.605Z,45.53
2019-02-14T13:38:51.826Z,45.44
2019-02-14T13:41:19.045Z,45.42
2019-02-14T13:43:46.447Z,45.36
2019-02-14T13:46:13.721Z,45.34
2019-02-14T13:48:41.041Z,45.33
2019-02-14T13:51:08.340Z,45.27
2019-02-14T13:53:37.463Z,45.22
2019-02-14T13:56:04.708Z,45.70
2019-02-14T13:58:31.869Z,45.55
2019-02-14T14:00:59.124Z,45.40
2019-02-14T14:03:26.352Z,45.60
2019-02-14T14:05:53.504Z,45.60
2019-02-14T14:08:21.702Z,45.83
2019-02-14T14:10:48.952Z,45.81
2019-02-14T14:13:16.385Z,45.77
2019-02-14T14:15:43.608Z,45.58
2019-02-14T14:18:10.781Z,45.46
2019-02-14T14:20:38.062Z,45.54
2019-02-14T14:23:05.230Z,45.49
2019-02-14T14:25:32.432Z,45.38
2019-02-14T14:27:59.749Z,45.34
2019-02-14T14:30:26.909Z,45.44
2019-02-14T14:32:54.350Z,45.28
2019-02-14T14:35:21.565Z,45.13
2019-02-14T14:37:48.758Z,45.06
2019-02-14T14:40:16.053Z,44.93
2019-02-14T14:43:05.838Z,44.74
2019-02-14T14:45:55.947Z,44.52
2019-02-14T14:48:24.842Z,44.29
2019-02-14T14:50:52.009Z,43.92
2019-02-14T14:53:19.219Z,43.78
2019-02-14T14:55:46.396Z,43.61
2019-02-14T14:58:13.624Z,43.46
2019-02-14T15:00:40.892Z,43.33
2019-02-14T15:03:08.186Z,43.27
2019-02-14T15:05:35.522Z,43.17
2019-02-14T15:08:02.712Z,43.12
2019-02-14T15:10:29.936Z,43.07
2019-02-14T15:12:57.182Z,43.01
2019-02-14T15:15:24.381Z,43.01
2019-02-14T15:17:51.562Z,43.10
2019-02-14T15:20:18.724Z,43.11
2019-02-14T15:22:46.069Z,43.08
2019-02-14T15:25:13.313Z,43.07
2019-02-14T15:27:40.544Z,43.05
2019-02-14T15:30:07.753Z,43.07
2019-02-14T15:32:35.005Z,43.12
2019-02-14T15:35:02.286Z,43.12
2019-02-14T15:37:32.055Z,43.36
2019-02-14T15:40:08.638Z,43.50
2019-02-14T15:42:28.404Z,43.69
2019-02-14T15:44:55.765Z,43.55
2019-02-14T15:47:23.171Z,43.47
2019-02-14T15:49:50.460Z,43.42
2019-02-14T15:52:17.911Z,43.46
2019-02-14T15:54:45.167Z,43.45
2019-02-14T15:57:12.323Z,43.47
2019-02-14T15:59:41.145Z,43.38
2019-02-14T16:02:08.664Z,43.38
2019-02-14T16:04:35.899Z,43.47
2019-02-14T16:07:03.162Z,43.54
2019-02-14T16:09:30.395Z,43.61
2019-02-14T16:11:57.988Z,43.63
2019-02-14T16:14:25.376Z,43.69
2019-02-14T16:16:52.606Z,43.89
2019-02-14T16:19:19.822Z,44.11
2019-02-14T16:21:47.052Z,44.34
2019-02-14T16:24:14.843Z,44.55
2019-02-14T16:26:43.640Z,44.71
2019-02-14T16:29:11.867Z,44.88
2019-02-14T16:31:39.065Z,45.01
2019-02-14T16:34:06.271Z,45.20
2019-02-14T16:36:33.628Z,45.31
2019-02-14T16:39:01.378Z,45.46
2019-02-14T16:41:28.821Z,45.59
2019-02-14T16:43:56.014Z,45.72
2019-02-14T16:46:23.388Z,45.88
2019-02-14T16:48:50.733Z,46.00
2019-02-14T16:51:17.945Z,46.13
2019-02-14T16:53:45.135Z,46.24
2019-02-14T16:56:12.388Z,46.31
2019-02-14T16:58:39.649Z,46.45
2019-02-14T17:01:06.979Z,46.97
2019-02-14T17:03:34.328Z,47.08
2019-02-14T17:06:01.912Z,46.95
2019-02-14T17:08:29.067Z,46.96
2019-02-14T17:10:56.230Z,47.04
2019-02-14T17:13:23.494Z,47.13
2019-02-14T17:15:50.681Z,47.22
2019-02-14T17:18:17.879Z,47.27
2019-02-14T17:20:45.080Z,47.34
2019-02-14T17:23:12.254Z,47.43
2019-02-14T17:25:39.449Z,47.50
2019-02-14T17:28:06.666Z,47.53
2019-02-14T17:30:33.848Z,47.62
2019-02-14T17:33:01.181Z,47.67
2019-02-14T17:35:28.366Z,47.75
2019-02-14T17:37:55.509Z,47.77
2019-02-14T17:40:22.708Z,47.84
2019-02-14T17:42:50.179Z,47.84
2019-02-14T17:45:17.370Z,47.94
2019-02-14T17:47:44.647Z,48.06
2019-02-14T17:50:11.813Z,48.10
2019-02-14T17:52:38.990Z,48.12
2019-02-14T17:55:06.527Z,48.18
2019-02-14T17:57:33.734Z,48.20
2019-02-14T18:00:00.980Z,48.26
2019-02-14T18:02:28.697Z,48.25
2019-02-14T18:04:56.147Z,48.30
2019-02-14T18:07:23.366Z,48.28
2019-02-14T18:09:50.610Z,48.29
2019-02-14T18:12:19.635Z,48.53
2019-02-14T18:14:50.311Z,49.10
2019-02-14T18:17:17.696Z,49.27
2019-02-14T18:19:44.942Z,49.41
2019-02-14T18:22:12.341Z,49.67
2019-02-14T18:24:39.590Z,49.68
2019-02-14T18:27:08.664Z,49.88
2019-02-14T18:29:36.061Z,49.78
2019-02-14T18:32:04.578Z,49.73
2019-02-14T18:34:32.094Z,49.76
2019-02-14T18:36:59.451Z,49.75
2019-02-14T18:39:26.711Z,49.76
2019-02-14T18:41:54.017Z,49.75
2019-02-14T18:44:21.177Z,49.79
2019-02-14T18:46:48.418Z,49.87
2019-02-14T18:49:15.730Z,49.96
2019-02-14T18:51:42.918Z,50.21
2019-02-14T18:54:10.175Z,50.35
2019-02-14T18:56:37.368Z,50.39
2019-02-14T18:59:04.552Z,50.55
2019-02-14T19:01:31.791Z,50.80
2019-02-14T19:03:58.982Z,50.56
2019-02-14T19:06:26.199Z,50.52
2019-02-14T19:08:53.420Z,50.24
2019-02-14T19:11:20.692Z,50.12
2019-02-14T19:13:47.921Z,50.21
2019-02-14T19:16:15.096Z,50.24
2019-02-14T19:18:42.343Z,50.25
2019-02-14T19:21:09.897Z,50.26
2019-02-14T19:23:37.072Z,50.27
2019-02-14T19:26:04.298Z,50.24
2019-02-14T19:28:31.570Z,50.37
2019-02-14T19:30:58.990Z,50.62
2019-02-14T19:33:26.164Z,50.53
2019-02-14T19:35:53.659Z,50.57
2019-02-14T19:38:20.894Z,50.53
2019-02-14T19:40:48.245Z,50.57
2019-02-14T19:43:15.413Z,50.65
2019-02-14T19:45:42.719Z,50.83
2019-02-14T19:48:09.994Z,50.95
2019-02-14T19:50:37.215Z,51.23
2019-02-14T19:53:04.442Z,51.36
2019-02-14T19:55:31.695Z,51.71
2019-02-14T19:57:59.353Z,51.59
2019-02-14T20:00:26.646Z,51.46
2019-02-14T20:02:53.850Z,51.61
2019-02-14T20:05:21.096Z,51.61
2019-02-14T20:07:48.376Z,51.71
2019-02-14T20:10:15.672Z,51.81
2019-02-14T20:12:42.898Z,51.85
2019-02-14T20:15:11.869Z,52.07
2019-02-14T20:17:39.137Z,52.11
2019-02-14T20:20:07.630Z,52.22
2019-02-14T20:22:34.845Z,52.24
2019-02-14T20:25:02.121Z,52.47
2019-02-14T20:27:29.338Z,52.00
2019-02-14T20:29:56.607Z,51.82
2019-02-14T20:32:23.782Z,52.00
2019-02-14T20:34:51.060Z,52.16
2019-02-14T20:37:18.260Z,52.28
2019-02-14T20:39:45.443Z,52.52
2019-02-14T20:42:12.643Z,52.65
2019-02-14T20:44:39.855Z,52.64
2019-02-14T20:47:07.248Z,52.73
2019-02-14T20:49:34.505Z,52.77
2019-02-14T20:52:01.749Z,52.79
2019-02-14T20:54:28.972Z,52.72
2019-02-14T20:56:56.169Z,52.73
2019-02-14T20:59:23.500Z,52.82
2019-02-14T21:01:51.262Z,52.94
2019-02-14T21:04:18.463Z,52.90
2019-02-14T21:06:46.284Z,52.98
2019-02-14T21:09:14.025Z,53.10
2019-02-14T21:11:41.347Z,53.10
2019-02-14T21:14:08.523Z,53.17
2019-02-14T21:16:35.714Z,53.25
2019-02-14T21:19:02.949Z,53.20
2019-02-14T21:21:30.141Z,53.23
2019-02-14T21:23:57.521Z,53.23
2019-02-14T21:26:24.686Z,53.34
2019-02-14T21:28:51.888Z,53.45
2019-02-14T21:31:19.113Z,53.46
2019-02-14T21:33:46.305Z,53.53
2019-02-14T21:36:13.645Z,53.44
2019-02-14T21:38:40.965Z,53.45
2019-02-14T21:41:08.298Z,53.60
2019-02-14T21:43:35.950Z,53.66
2019-02-14T21:46:03.270Z,53.62
2019-02-14T21:48:30.549Z,53.66
2019-02-14T21:50:57.767Z,53.71
2019-02-14T21:53:25.128Z,53.83
2019-02-14T21:55:52.505Z,53.69
2019-02-14T21:58:20.823Z,53.32
2019-02-14T22:00:49.214Z,53.12
2019-02-14T22:03:17.136Z,53.46
2019-02-14T22:05:44.526Z,54.07
2019-02-14T22:08:11.920Z,54.07
2019-02-14T22:10:39.636Z,53.79
2019-02-14T22:13:07.037Z,53.77
2019-02-14T22:15:34.246Z,53.74
2019-02-14T22:18:01.809Z,53.67
2019-02-14T22:20:29.282Z,53.73
2019-02-14T22:22:56.777Z,53.82
2019-02-14T22:25:23.958Z,53.74
2019-02-14T22:27:51.172Z,53.67
2019-02-14T22:30:18.414Z,53.58
2019-02-14T22:32:45.799Z,53.71
2019-02-14T22:35:13.218Z,53.97
2019-02-14T22:37:40.467Z,53.70
2019-02-14T22:40:08.245Z,53.27
2019-02-14T22:42:35.446Z,52.88
2019-02-14T22:45:02.696Z,52.99
2019-02-14T22:47:30.184Z,53.00
2019-02-14T22:49:57.387Z,53.11
2019-02-14T22:52:25.048Z,53.23
2019-02-14T22:54:52.241Z,53.29
2019-02-14T22:57:19.491Z,53.30
2019-02-14T22:59:46.679Z,53.36
2019-02-14T23:02:14.007Z,53.45
2019-02-14T23:04:41.229Z,53.47
2019-02-14T23:07:08.556Z,53.44
2019-02-14T23:09:35.913Z,53.33
2019-02-14T23:12:03.078Z,53.40
2019-02-14T23:14:30.489Z,53.64
2019-02-14T23:16:57.683Z,53.47
2019-02-14T23:19:24.878Z,53.62
2019-02-14T23:21:52.115Z,53.57
2019-02-14T23:24:19.325Z,53.57
2019-02-14T23:26:46.672Z,53.30
2019-02-14T23:29:13.831Z,53.00
2019-02-14T23:31:41.034Z,52.96
2019-02-14T23:34:08.249Z,53.12
2019-02-14T23:36:35.430Z,53.14
2019-02-14T23:39:04.222Z,53.05
2019-02-14T23:41:31.496Z,53.15
2019-02-14T23:43:58.658Z,53.18
2019-02-14T23:46:26.567Z,53.35
2019-02-14T23:48:53.946Z,53.66
2019-02-14T23:51:21.174Z,53.39
2019-02-14T23:53:48.435Z,53.52
2019-02-14T23:56:15.675Z,53.72
2019-02-14T23:58:43.060Z,54.12
